Time;durP1;ratioP1;P1;durP2;ratioP2;P2;SDS_P1;SDS_P2;PMS_P1;PMS_P2;Temp;Humidity;BMP_temperature;BMP_pressure;BME280_temperature;BME280_humidity;BME280_pressure;Samples;Min_cycle;Max_cycle;Signal;HPM_P1;HPM_P2
2022/06/18 00:01:33;;;;;;;6.90;2.35;;;;;;;-148.88;51.53;75042.00;5014635;28;20399;-85
2022/06/18 00:04:01;;;;;;;3.75;2.30;;;;;;;-148.88;52.02;75037.94;4997480;28;20022;-86
2022/06/18 00:06:28;;;;;;;4.43;2.40;;;;;;;-148.88;51.95;75033.88;5013160;28;20021;-85
2022/06/18 00:08:53;;;;;;;3.05;2.10;;;;;;;-148.88;51.86;75037.94;5013243;28;20030;-85
2022/06/18 00:14:06;;;;;;;3.20;2.08;;;;;;;-148.88;52.12;75042.00;5014742;28;20598;-86
2022/06/18 00:16:31;;;;;;;3.85;2.20;;;;;;;-148.88;52.16;75050.13;5014410;28;20021;-86
2022/06/18 00:18:57;;;;;;;4.10;2.20;;;;;;;-148.88;52.08;75044.03;4996486;28;20025;-85
2022/06/18 00:21:24;;;;;;;3.33;2.08;;;;;;;-148.88;52.52;75044.03;4997077;28;20051;-86
2022/06/18 00:23:50;;;;;;;2.80;1.88;;;;;;;-148.88;52.12;75037.94;4996574;28;20105;-85
2022/06/18 00:26:15;;;;;;;3.35;1.98;;;;;;;-148.88;52.03;75044.03;5013429;28;20128;-86
2022/06/18 00:28:41;;;;;;;4.07;2.17;;;;;;;-148.88;52.32;75046.06;5013397;28;20034;-85
2022/06/18 00:31:06;;;;;;;4.55;2.58;;;;;;;-148.88;52.57;75044.03;4996306;28;20412;-86
2022/06/18 00:33:35;;;;;;;4.03;2.50;;;;;;;-148.88;52.06;75054.19;4996419;28;20048;-86
2022/06/18 00:36:03;;;;;;;2.80;2.13;;;;;;;-148.88;52.19;75048.09;5012754;28;20021;-86
2022/06/18 00:38:32;;;;;;;3.75;2.00;;;;;;;-148.88;52.24;75056.22;4996190;28;20403;-85
2022/06/18 00:40:58;;;;;;;3.42;2.17;;;;;;;-148.88;52.28;75050.13;4996581;28;20030;-85
2022/06/18 00:43:34;;;;;;;3.33;2.00;;;;;;;-148.88;52.56;75054.19;4996779;28;20498;-86
2022/06/18 00:46:10;;;;;;;3.97;2.00;;;;;;;-148.88;52.14;75050.13;4996035;28;20479;-86
2022/06/18 00:48:47;;;;;;;2.88;2.03;;;;;;;-148.88;52.73;75050.13;4995610;28;20369;-86
2022/06/18 00:51:21;;;;;;;2.83;1.85;;;;;;;-148.88;52.39;75050.13;4996856;28;20024;-85
2022/06/18 00:53:55;;;;;;;2.90;1.80;;;;;;;-148.88;53.53;75054.19;5012764;28;20128;-85
2022/06/18 00:56:34;;;;;;;4.05;1.92;;;;;;;-148.88;52.86;75058.25;5014428;28;20025;-86
2022/06/18 00:59:09;;;;;;;2.70;2.10;;;;;;;-148.88;53.05;75054.19;4996288;28;20032;-85
2022/06/18 01:01:40;;;;;;;3.47;1.90;;;;;;;-148.88;53.31;75058.25;4996146;28;20160;-85
2022/06/18 01:04:30;;;;;;;4.60;1.80;;;;;;;-148.88;54.14;75070.44;4996303;28;20029;-86
2022/06/18 01:07:17;;;;;;;3.47;1.88;;;;;;;-148.88;53.63;75066.38;5013170;28;20033;-85
2022/06/18 01:09:46;;;;;;;2.58;1.80;;;;;;;-148.88;54.04;75072.47;4996098;28;20025;-85
2022/06/18 01:12:11;;;;;;;3.22;2.15;;;;;;;-148.88;54.45;75078.56;5012124;28;20018;-86
2022/06/18 01:14:38;;;;;;;2.97;2.00;;;;;;;-148.88;54.37;75080.59;4995943;28;20361;-85
2022/06/18 01:17:06;;;;;;;3.50;1.73;;;;;;;-148.88;54.72;75078.56;5014101;28;20030;-86
2022/06/18 01:19:38;;;;;;;4.72;2.10;;;;;;;-148.88;55.10;75086.69;4996032;28;20021;-85
2022/06/18 01:22:16;;;;;;;4.20;2.10;;;;;;;-148.88;55.08;75092.78;4995715;28;20026;-85
2022/06/18 01:24:42;;;;;;;3.85;2.05;;;;;;;-148.88;55.27;75094.81;4996738;28;20037;-85
2022/06/18 01:27:13;;;;;;;2.10;1.70;;;;;;;-148.88;55.46;75092.78;5012383;28;20018;-86
2022/06/18 01:29:39;;;;;;;2.72;2.00;;;;;;;-148.88;56.22;75098.84;4995828;28;20018;-85
2022/06/18 01:32:09;;;;;;;4.28;2.20;;;;;;;-148.88;56.47;75111.03;4995639;28;20025;-85
2022/06/18 01:34:35;;;;;;;4.28;1.77;;;;;;;-148.88;56.53;75117.13;4995697;28;20022;-86
2022/06/18 01:37:01;;;;;;;3.85;1.80;;;;;;;-148.88;56.93;75121.19;5012868;28;20053;-85
2022/06/18 01:39:31;;;;;;;2.63;1.98;;;;;;;-148.88;57.35;75119.16;5013539;28;20492;-85
2022/06/18 01:42:02;;;;;;;3.50;1.85;;;;;;;-148.88;57.51;75119.16;5012000;28;20030;-85
2022/06/18 01:44:36;;;;;;;3.13;1.90;;;;;;;-148.88;57.66;75129.31;5012332;28;20048;-87
2022/06/18 01:47:15;;;;;;;2.65;1.92;;;;;;;-148.88;57.76;75131.34;4995830;28;20025;-85
2022/06/18 01:49:47;;;;;;;4.40;2.13;;;;;;;-148.88;58.35;75135.41;4996371;28;20022;-85
2022/06/18 01:52:14;;;;;;;4.05;2.00;;;;;;;-148.88;58.81;75137.44;5011872;28;20112;-85
2022/06/18 01:54:52;;;;;;;3.53;2.08;;;;;;;-148.88;59.22;75137.44;4995893;28;20037;-85
2022/06/18 01:57:24;;;;;;;4.43;2.13;;;;;;;-148.88;58.51;75141.50;4996413;28;20022;-85
2022/06/18 01:59:53;;;;;;;3.70;2.28;;;;;;;-148.88;58.58;75143.53;4997423;28;20025;-86
2022/06/18 02:02:18;;;;;;;4.00;2.10;;;;;;;-148.88;58.75;75135.41;4998827;28;20036;-85
2022/06/18 02:04:44;;;;;;;5.32;2.13;;;;;;;-148.88;59.38;75143.53;5016516;28;20025;-85
2022/06/18 02:07:10;;;;;;;4.07;2.10;;;;;;;-148.88;59.04;75133.38;5015952;28;20033;-85
2022/06/18 02:09:46;;;;;;;2.85;1.90;;;;;;;-148.88;58.85;75133.38;5015416;28;20248;-85
2022/06/18 02:12:15;;;;;;;2.58;1.90;;;;;;;-148.88;58.57;75131.34;5015156;28;20026;-86
2022/06/18 02:14:44;;;;;;;3.45;2.25;;;;;;;-148.88;58.87;75131.34;5015281;28;20480;-85
2022/06/18 02:17:17;;;;;;;4.35;2.10;;;;;;;-148.88;59.92;75129.31;4998661;28;20053;-86
2022/06/18 02:19:46;;;;;;;3.28;2.25;;;;;;;-148.88;59.93;75131.34;5014901;28;20120;-85
2022/06/18 02:22:12;;;;;;;2.85;1.90;;;;;;;-148.88;59.94;75131.34;5015775;28;20057;-85
2022/06/18 02:24:37;;;;;;;3.03;1.90;;;;;;;-148.88;59.89;75131.34;5000162;28;20041;-86
2022/06/18 02:27:03;;;;;;;3.03;2.08;;;;;;;-148.88;60.23;75127.28;4999445;28;20018;-85
2022/06/18 02:29:31;;;;;;;3.67;2.30;;;;;;;-148.88;60.22;75123.22;5015018;28;20076;-85
2022/06/18 02:31:59;;;;;;;3.05;1.98;;;;;;;-148.88;60.93;75119.16;4998618;28;20026;-85
2022/06/18 02:34:28;;;;;;;2.70;2.30;;;;;;;-148.88;60.53;75117.13;4998762;28;20049;-85
2022/06/18 02:36:55;;;;;;;3.72;2.38;;;;;;;-148.88;61.77;75127.28;4999084;28;20034;-85
2022/06/18 02:39:32;;;;;;;4.95;3.85;;;;;;;-148.88;64.20;75161.81;5015144;28;20026;-85
2022/06/18 02:42:06;;;;;;;5.95;3.40;;;;;;;-148.88;65.06;75161.81;4998905;28;20040;-85
2022/06/18 02:44:32;;;;;;;6.63;3.60;;;;;;;-148.88;67.13;75182.13;4999008;28;20038;-85
2022/06/18 02:47:01;;;;;;;3.58;2.75;;;;;;;-148.88;66.91;75169.94;5015277;28;20022;-85
2022/06/18 02:49:27;;;;;;;3.50;2.55;;;;;;;-148.88;66.18;75169.94;5014994;28;20025;-85
2022/06/18 02:51:53;;;;;;;4.13;2.65;;;;;;;-148.88;65.74;75165.88;4998504;28;20507;-85
2022/06/18 02:54:19;;;;;;;3.75;2.20;;;;;;;-148.88;64.42;75155.72;4998211;28;20475;-85
2022/06/18 02:56:47;;;;;;;4.80;2.05;;;;;;;-148.88;63.34;75145.56;4998826;28;20120;-85
2022/06/18 02:59:12;;;;;;;4.68;2.20;;;;;;;-148.88;63.43;75139.47;4998794;28;20472;-85
2022/06/18 03:01:37;;;;;;;3.53;2.10;;;;;;;-148.88;63.03;75127.28;4998559;28;20030;-85
2022/06/18 03:04:03;;;;;;;3.72;2.10;;;;;;;-148.88;62.08;75119.16;5015184;28;20446;-85
2022/06/18 03:06:31;;;;;;;3.53;2.00;;;;;;;-148.88;61.71;75102.91;5015221;28;20353;-85
2022/06/18 03:08:57;;;;;;;3.75;1.90;;;;;;;-148.88;61.09;75094.81;4998256;28;20036;-85
2022/06/18 03:14:09;;;;;;;3.92;3.33;;;;;;;-148.88;64.66;75119.16;5018449;28;20056;-85
2022/06/18 03:16:35;;;;;;;5.53;2.88;;;;;;;-148.88;63.14;75111.03;5016186;28;20026;-85
2022/06/18 03:19:01;;;;;;;4.47;2.45;;;;;;;-148.88;63.03;75102.91;5015993;28;20033;-85
2022/06/18 03:21:45;;;;;;;3.97;2.38;;;;;;;-148.88;60.65;75078.56;4999420;28;20029;-84
2022/06/18 03:24:10;;;;;;;;;;;;;;;-148.88;59.53;75042.00;4999758;28;20089;-85
2022/06/18 03:26:36;;;;;;;3.73;2.40;;;;;;;-148.88;58.85;75029.81;4999677;28;19913;-85
2022/06/18 03:29:05;;;;;;;4.50;2.40;;;;;;;-148.88;58.27;75021.69;5015615;28;20263;-85
2022/06/18 03:31:32;;;;;;;5.30;2.33;;;;;;;-148.88;57.66;74993.25;4999404;28;20025;-86
2022/06/18 03:33:57;;;;;;;4.32;2.40;;;;;;;-148.88;57.21;74987.16;5015423;28;20117;-85
2022/06/18 03:36:23;;;;;;;3.95;2.13;;;;;;;-148.88;56.66;74981.06;4998591;28;20196;-85
2022/06/18 03:38:49;;;;;;;5.30;2.50;;;;;;;-148.88;56.43;74972.94;5015769;28;20500;-84
2022/06/18 03:41:16;;;;;;;4.95;2.63;;;;;;;-148.88;56.35;74960.75;5016370;28;20029;-86
2022/06/18 03:43:41;;;;;;;3.33;2.60;;;;;;;-148.88;56.27;74952.63;5015945;28;20030;-85
2022/06/18 03:46:10;;;;;;;4.65;2.70;;;;;;;-148.88;56.20;74956.69;5016628;28;20018;-85
2022/06/18 03:48:40;;;;;;;3.85;2.30;;;;;;;-148.88;56.37;74958.72;5000328;28;20029;-84
2022/06/18 03:51:05;;;;;;;7.75;2.85;;;;;;;-148.88;56.55;74956.69;5000979;28;20025;-85
2022/06/18 03:53:30;;;;;;;5.43;2.58;;;;;;;-148.88;56.66;74962.78;5016116;28;20029;-86
2022/06/18 03:55:56;;;;;;;2.67;2.22;;;;;;;-148.88;56.53;74954.66;4997520;28;20033;-85
2022/06/18 03:58:21;;;;;;;6.07;2.47;;;;;;;-148.88;56.42;74952.63;5013707;28;20068;-86
2022/06/18 04:00:57;;;;;;;6.35;2.60;;;;;;;-148.88;56.27;74946.53;5015894;28;20365;-85
2022/06/18 04:03:23;;;;;;;5.07;2.20;;;;;;;-148.88;56.81;74956.69;4998896;28;20025;-86
2022/06/18 04:05:48;;;;;;;4.50;2.42;;;;;;;-148.88;56.56;74954.66;4998635;28;20037;-85
2022/06/18 04:08:17;;;;;;;2.83;2.17;;;;;;;-148.88;56.93;74958.72;4999776;28;20014;-86
2022/06/18 04:10:45;;;;;;;4.45;2.75;;;;;;;-148.88;56.95;74948.56;5015409;28;20476;-85
2022/06/18 04:13:11;;;;;;;5.85;2.45;;;;;;;-148.88;56.59;74946.53;5000058;28;20034;-85
2022/06/18 04:15:36;;;;;;;5.10;2.40;;;;;;;-148.88;56.69;74940.47;5000125;28;20057;-86
2022/06/18 04:18:06;;;;;;;4.15;2.33;;;;;;;-148.88;56.95;74940.47;5018864;28;20460;-86
2022/06/18 04:20:36;;;;;;;4.47;2.50;;;;;;;-148.88;56.83;74928.28;5016994;28;20018;-89
2022/06/18 04:23:02;;;;;;;5.00;2.85;;;;;;;-148.88;56.81;74928.28;4997378;28;20104;-86
2022/06/18 04:25:28;;;;;;;5.72;2.95;;;;;;;-148.88;56.75;74912.03;4999522;28;20029;-86
2022/06/18 04:27:57;;;;;;;6.00;3.05;;;;;;;-148.88;56.29;74887.66;5015427;28;20030;-87
2022/06/18 04:30:26;;;;;;;3.97;2.30;;;;;;;-148.88;56.27;74887.66;4998885;28;20050;-87
2022/06/18 04:32:52;;;;;;;3.78;2.35;;;;;;;-148.88;56.51;74891.72;4996771;28;20040;-86
2022/06/18 04:35:18;;;;;;;5.10;2.45;;;;;;;-148.88;56.38;74881.56;4998265;28;20057;-88
2022/06/18 04:37:52;;;;;;;7.57;2.72;;;;;;;-148.88;56.45;74875.47;4999894;28;20025;-87
2022/06/18 04:40:31;;;;;;;4.47;2.60;;;;;;;-148.88;56.01;74855.16;5000660;28;20069;-87
2022/06/18 04:43:04;;;;;;;7.28;2.33;;;;;;;-148.88;56.76;74869.38;4998802;28;20025;-85
2022/06/18 04:45:30;;;;;;;5.30;2.77;;;;;;;-148.88;56.66;74859.22;5013183;28;20112;-84
2022/06/18 04:48:00;;;;;;;5.28;2.70;;;;;;;-148.88;57.27;74871.41;4996776;28;20247;-87
2022/06/18 04:50:30;;;;;;;5.65;2.50;;;;;;;-148.88;57.66;74863.28;4980683;28;20030;-83
2022/06/18 04:52:55;;;;;;;4.50;2.58;;;;;;;-148.88;57.42;74855.16;4996784;28;20575;-87
2022/06/18 04:55:21;;;;;;;4.60;2.63;;;;;;;-148.88;57.21;74853.13;5012538;28;20120;-87
2022/06/18 04:57:46;;;;;;;4.28;2.50;;;;;;;-148.88;58.34;74855.16;4996283;28;20026;-88
2022/06/18 05:00:12;;;;;;;5.55;2.83;;;;;;;-148.88;58.06;74838.91;4997090;28;20392;-86
2022/06/18 05:02:38;;;;;;;4.20;2.65;;;;;;;-148.88;57.94;74832.81;5043419;23;20043;-83
2022/06/18 05:05:06;;;;;;;4.78;2.58;;;;;;;-148.88;58.16;74830.78;5000907;28;20069;-83
2022/06/18 05:07:31;;;;;;;4.97;3.05;;;;;;;-148.88;57.32;74814.53;5000006;28;20026;-83
2022/06/18 05:09:57;;;;;;;6.70;2.83;;;;;;;-148.88;57.19;74808.47;4997745;28;20113;-83
2022/06/18 05:12:22;;;;;;;6.68;2.83;;;;;;;-148.88;57.36;74800.34;4999464;28;20117;-82
2022/06/18 05:14:48;;;;;;;5.80;3.00;;;;;;;-148.88;57.14;74792.22;4999879;28;20033;-83
2022/06/18 05:17:21;;;;;;;6.50;2.90;;;;;;;-148.88;57.14;74788.16;4998343;28;20054;-82
2022/06/18 05:19:47;;;;;;;4.72;2.53;;;;;;;-148.88;57.08;74784.09;4999787;28;20022;-82
2022/06/18 05:22:12;;;;;;;4.70;2.55;;;;;;;-148.88;57.09;74780.03;4998070;28;20506;-81
2022/06/18 05:24:38;;;;;;;5.70;2.50;;;;;;;-148.88;57.38;74769.88;4993893;28;20036;-81
2022/06/18 05:27:03;;;;;;;4.68;2.80;;;;;;;-148.88;56.96;74767.84;4997226;28;20018;-82
2022/06/18 05:29:29;;;;;;;5.30;2.83;;;;;;;-148.88;57.28;74761.75;4997556;28;20034;-85
2022/06/18 05:31:54;;;;;;;4.10;2.97;;;;;;;-148.88;58.03;74759.72;4993745;28;20105;-84
2022/06/18 05:34:20;;;;;;;7.18;3.30;;;;;;;-148.88;56.94;74731.28;4997443;28;20457;-82
2022/06/18 05:36:45;;;;;;;7.90;2.97;;;;;;;-148.88;57.16;74729.25;4999758;28;20031;-84
2022/06/18 05:39:15;;;;;;;7.75;3.10;;;;;;;-148.88;56.80;74725.19;4998942;28;20031;-81
2022/06/18 05:41:40;;;;;;;7.15;3.08;;;;;;;-148.88;56.89;74715.03;4999452;28;20033;-81
2022/06/18 05:44:06;;;;;;;6.60;2.95;;;;;;;-148.88;56.50;74706.91;5000788;28;20018;-82
2022/06/18 05:46:32;;;;;;;3.88;2.78;;;;;;;-148.88;56.42;74696.78;5000038;28;20022;-82
2022/06/18 05:48:57;;;;;;;6.43;3.05;;;;;;;-148.88;56.38;74684.59;5001690;28;20038;-82
2022/06/18 05:51:22;;;;;;;6.22;3.22;;;;;;;-148.88;56.65;74680.53;5000844;28;20026;-82
2022/06/18 05:53:49;;;;;;;6.95;3.08;;;;;;;-148.88;56.04;74664.28;4999057;28;20034;-82
2022/06/18 05:56:15;;;;;;;6.05;2.95;;;;;;;-148.88;56.62;74668.34;4998097;28;20030;-81
2022/06/18 05:58:40;;;;;;;5.43;3.00;;;;;;;-148.88;56.48;74656.16;4999500;28;20097;-81
2022/06/18 06:01:06;;;;;;;6.70;3.22;;;;;;;-148.88;56.47;74654.13;4997647;28;20030;-81
2022/06/18 06:03:31;;;;;;;11.10;3.30;;;;;;;-148.88;56.95;74656.16;4999229;28;20034;-81
2022/06/18 06:05:56;;;;;;;4.72;3.05;;;;;;;-148.88;57.18;74648.03;4999671;28;20432;-82
2022/06/18 06:08:22;;;;;;;7.47;3.47;;;;;;;-148.88;57.16;74648.03;4999733;28;20109;-82
2022/06/18 06:13:31;;;;;;;8.02;3.17;;;;;;;-148.88;56.96;74629.75;4997408;28;20554;-81
2022/06/18 06:15:57;;;;;;;6.15;3.15;;;;;;;-148.88;56.24;74625.69;4998313;28;20041;-81
2022/06/18 06:18:24;;;;;;;5.88;3.50;;;;;;;-148.88;56.34;74611.47;4981169;28;20165;-83
2022/06/18 06:20:53;;;;;;;4.78;3.30;;;;;;;-148.88;56.16;74603.34;4999134;28;20057;-83
2022/06/18 06:23:19;;;;;;;5.85;2.92;;;;;;;-148.88;55.75;74607.41;4998699;28;20022;-83
2022/06/18 06:25:46;;;;;;;6.60;3.33;;;;;;;-148.88;55.75;74601.31;4998691;28;20396;-81
2022/06/18 06:28:14;;;;;;;7.70;3.28;;;;;;;-148.88;56.34;74587.13;4997262;28;20041;-84
2022/06/18 06:30:39;;;;;;;8.40;3.17;;;;;;;-148.88;55.61;74579.00;4997143;28;20026;-83
2022/06/18 06:33:05;;;;;;;6.43;3.22;;;;;;;-148.88;55.55;74579.00;4997337;28;20097;-82
2022/06/18 06:35:30;;;;;;;8.43;3.30;;;;;;;-148.88;55.08;74570.88;4998623;28;20018;-82
2022/06/18 06:37:56;;;;;;;8.82;3.33;;;;;;;-148.88;55.90;74570.88;4997810;28;20420;-83
2022/06/18 06:40:21;;;;;;;6.32;3.47;;;;;;;-148.88;55.75;74550.56;4996506;28;20388;-82
2022/06/18 06:42:49;;;;;;;6.53;3.50;;;;;;;-148.88;55.71;74542.44;4995508;28;20026;-82
2022/06/18 06:45:17;;;;;;;7.70;3.90;;;;;;;-148.88;55.01;74542.44;4996649;28;20076;-83
2022/06/18 06:47:43;;;;;;;5.57;3.40;;;;;;;-148.88;56.03;74528.22;4997137;28;20018;-83
2022/06/18 06:50:11;;;;;;;6.90;3.58;;;;;;;-148.88;55.06;74526.19;4997106;28;20040;-83
2022/06/18 06:52:36;;;;;;;9.48;3.80;;;;;;;-148.88;55.11;74518.06;4997366;28;20034;-84
2022/06/18 06:57:47;;;;;;;7.80;4.32;;;;;;;-148.88;54.25;74507.91;4996986;28;20037;-83
2022/06/18 07:00:13;;;;;;;6.63;3.92;;;;;;;-148.88;53.81;74518.06;4997425;28;20026;-83
2022/06/18 07:02:38;;;;;;;6.75;3.78;;;;;;;-148.88;53.89;74509.94;4996853;28;20034;-82
2022/06/18 07:05:04;;;;;;;9.68;4.25;;;;;;;-148.88;54.37;74505.88;4996134;28;20389;-83
2022/06/18 07:07:30;;;;;;;9.88;4.07;;;;;;;-148.88;53.87;74507.91;4996145;28;20038;-82
2022/06/18 07:09:56;;;;;;;5.35;4.25;;;;;;;-148.88;55.01;74501.81;4996254;28;20440;-83
2022/06/18 07:12:22;;;;;;;6.72;3.95;;;;;;;-148.88;54.61;74491.69;4996231;28;20029;-83
2022/06/18 07:14:47;;;;;;;8.88;4.38;;;;;;;-148.88;54.96;74483.56;4994885;28;20027;-82
2022/06/18 07:17:17;;;;;;;5.72;4.20;;;;;;;-148.88;55.12;74479.50;4995763;28;20027;-82
2022/06/18 07:19:42;;;;;;;8.15;4.57;;;;;;;-148.88;55.31;74465.28;4995461;28;20165;-82
2022/06/18 07:22:10;;;;;;;10.40;4.55;;;;;;;-148.88;55.00;74451.06;4995708;28;20105;-83
2022/06/18 07:24:36;;;;;;;7.18;4.18;;;;;;;-148.88;54.73;74451.06;4996071;28;20030;-82
2022/06/18 07:27:01;;;;;;;9.82;4.53;;;;;;;-148.88;54.60;74442.94;4997374;28;20022;-83
2022/06/18 07:29:26;;;;;;;6.05;4.60;;;;;;;-148.88;54.76;74428.72;4996387;28;20481;-84
2022/06/18 07:31:52;;;;;;;6.60;4.63;;;;;;;-148.88;54.67;74418.56;4995891;28;20027;-84
2022/06/18 07:34:17;;;;;;;9.30;4.43;;;;;;;-148.88;55.46;74400.31;4996451;28;20057;-84
2022/06/18 07:36:42;;;;;;;9.07;4.50;;;;;;;-148.88;54.83;74404.38;4996554;28;20078;-84
2022/06/18 07:39:07;;;;;;;11.80;4.57;;;;;;;-148.88;54.13;74392.19;4996200;28;20442;-82
2022/06/18 07:41:43;;;;;;;8.75;4.32;;;;;;;-148.88;53.26;74382.03;4996823;28;20027;-82
2022/06/18 07:44:09;;;;;;;7.68;4.28;;;;;;;-148.88;54.04;74373.91;5000179;28;20030;-83
2022/06/18 07:46:34;;;;;;;8.13;4.90;;;;;;;-148.88;53.50;74375.94;4999548;28;20445;-82
2022/06/18 07:48:59;;;;;;;10.98;4.55;;;;;;;-148.88;54.19;74371.88;5001443;28;20022;-82
2022/06/18 07:51:26;;;;;;;7.30;4.13;;;;;;;-148.88;54.40;74341.41;5001352;28;20026;-82
2022/06/18 07:53:53;;;;;;;10.32;6.50;;;;;;;-148.88;53.25;74335.31;5000858;28;20079;-83
2022/06/18 07:56:18;;;;;;;8.07;4.80;;;;;;;-148.88;52.17;74331.25;4999847;28;20052;-82
2022/06/18 07:58:43;;;;;;;10.20;4.88;;;;;;;-148.88;52.35;74331.25;5000240;28;20027;-84
2022/06/18 08:01:09;;;;;;;7.72;4.25;;;;;;;-148.88;52.63;74323.16;4999693;28;20040;-83
2022/06/18 08:03:35;;;;;;;10.00;4.60;;;;;;;-148.88;52.35;74294.72;5001089;28;20022;-83
2022/06/18 08:06:01;;;;;;;9.20;4.70;;;;;;;-148.88;51.88;74298.78;4998716;28;20030;-83
2022/06/18 08:08:27;;;;;;;9.45;4.78;;;;;;;-148.88;52.37;74306.91;4995054;28;20045;-83
2022/06/18 08:10:53;;;;;;;8.77;4.43;;;;;;;-148.88;52.86;74286.59;4997065;28;20492;-81
2022/06/18 08:13:20;;;;;;;7.82;4.60;;;;;;;-148.88;53.11;74288.63;4996051;28;20026;-82
2022/06/18 08:15:45;;;;;;;13.10;4.82;;;;;;;-148.88;52.42;74266.28;4994133;28;20039;-81
2022/06/18 08:18:11;;;;;;;9.60;4.35;;;;;;;-148.88;53.35;74250.03;4996396;28;20023;-83
2022/06/18 08:20:37;;;;;;;9.07;4.50;;;;;;;-148.88;52.75;74250.03;4996637;28;20033;-84
2022/06/18 08:23:06;;;;;;;13.45;4.85;;;;;;;-148.88;52.47;74237.88;4996702;28;20048;-84
2022/06/18 08:25:32;;;;;;;6.55;4.38;;;;;;;-148.88;50.14;74225.69;4997625;28;20050;-83
2022/06/18 08:28:00;;;;;;;7.97;4.00;;;;;;;-148.88;51.74;74209.44;4998017;28;20050;-81
2022/06/18 08:30:26;;;;;;;8.38;4.50;;;;;;;-148.88;50.71;74203.34;4996570;28;20034;-81
2022/06/18 08:32:52;;;;;;;8.50;4.43;;;;;;;-148.88;50.92;74197.25;4995415;28;20156;-81
2022/06/18 08:35:17;;;;;;;10.57;4.50;;;;;;;-148.88;52.33;74178.97;4996525;28;20082;-83
2022/06/18 08:37:44;;;;;;;9.98;4.45;;;;;;;-148.88;51.21;74168.84;4996311;28;20357;-84
2022/06/18 08:40:34;;;;;;;8.90;4.03;;;;;;;-148.88;49.80;74148.53;4996525;28;20030;-83
2022/06/18 08:43:11;;;;;;;10.77;4.30;;;;;;;-148.88;49.99;74154.63;4996043;28;20377;-85
2022/06/18 08:46:26;;;;;;;7.63;4.20;;;;;;;-148.88;51.35;74152.59;4995212;28;20030;-82
2022/06/18 08:49:02;;;;;;;9.68;4.80;;;;;;;-148.88;48.86;74138.38;4915912;29;20027;-83
2022/06/18 08:51:59;;;;;;;10.65;4.25;;;;;;;-148.88;49.83;74128.22;4991745;28;20084;-83
2022/06/18 08:54:39;;;;;;;7.22;4.45;;;;;;;-148.88;48.37;74107.91;4930911;28;20501;-84
2022/06/18 08:57:15;;;;;;;7.00;4.30;;;;;;;-148.88;48.55;74093.72;5000423;28;20072;-83
2022/06/18 09:00:04;;;;;;;9.20;4.40;;;;;;;-148.88;47.92;74085.59;4999758;28;20042;-84
2022/06/18 09:02:38;;;;;;;8.95;4.60;;;;;;;-148.88;48.57;74073.41;5000250;28;20034;-83
2022/06/18 09:05:22;;;;;;;9.55;4.60;;;;;;;-148.88;47.76;74071.38;4997436;28;20076;-83
2022/06/18 09:07:58;;;;;;;13.65;4.20;;;;;;;-148.88;48.70;74038.88;4997470;28;20031;-84
2022/06/18 09:10:51;;;;;;;9.45;4.22;;;;;;;-148.88;46.62;74051.06;5002747;28;20486;-83
2022/06/18 09:13:25;;;;;;;7.72;4.00;;;;;;;-148.88;46.16;74026.72;5002935;28;20065;-83
2022/06/18 09:15:56;;;;;;;9.98;4.15;;;;;;;-148.88;47.62;74030.75;5003025;28;20488;-80
2022/06/18 09:18:29;;;;;;;7.57;4.45;;;;;;;-148.88;47.68;74010.47;5001913;28;20038;-80
2022/06/18 09:20:57;;;;;;;8.88;4.07;;;;;;;-148.88;46.94;74004.38;5001521;28;20041;-80
2022/06/18 09:23:34;;;;;;;7.43;4.38;;;;;;;-148.88;46.97;74002.34;5002641;28;20030;-81
2022/06/18 09:26:04;;;;;;;9.68;4.28;;;;;;;-148.88;46.79;73973.91;5000842;28;20456;-80
2022/06/18 09:28:49;;;;;;;8.63;4.40;;;;;;;-148.88;45.98;73937.38;4999918;28;20062;-81
2022/06/18 09:31:31;;;;;;;7.65;4.10;;;;;;;-148.88;44.68;73943.47;5000436;28;20022;-81
2022/06/18 09:34:08;;;;;;;7.90;3.85;;;;;;;-148.88;45.48;73927.22;5000184;28;20064;-81
2022/06/18 09:36:40;;;;;;;9.68;4.28;;;;;;;-148.88;44.27;73921.13;5001520;28;20033;-81
2022/06/18 09:39:32;;;;;;;10.85;3.92;;;;;;;-148.88;44.07;73913.00;5000922;28;20030;-82
2022/06/18 09:42:17;;;;;;;9.13;4.30;;;;;;;-148.88;43.91;73896.75;4989865;28;20084;-83
2022/06/18 09:44:59;;;;;;;10.50;4.15;;;;;;;-148.88;44.25;73864.28;5001001;28;20543;-81
2022/06/18 09:47:37;;;;;;;7.15;4.50;;;;;;;-148.88;44.51;73876.47;5003051;28;20065;-81
2022/06/18 09:50:17;;;;;;;8.52;4.53;;;;;;;-148.88;43.74;73868.34;5002048;28;20060;-81
2022/06/18 09:52:48;;;;;;;8.18;4.47;;;;;;;-148.88;42.95;73852.09;5002488;28;20033;-80
2022/06/18 09:55:21;;;;;;;15.02;4.35;;;;;;;-148.88;42.72;73837.88;5002512;28;20034;-80
2022/06/18 09:57:51;;;;;;;7.72;4.10;;;;;;;-148.88;41.98;73811.50;5004443;28;20023;-81
2022/06/18 10:00:21;;;;;;;10.50;4.68;;;;;;;-148.88;41.95;73793.22;5002779;28;20113;-81
2022/06/18 10:02:54;;;;;;;10.20;4.53;;;;;;;-148.88;42.43;73799.31;5002330;28;20026;-80
2022/06/18 10:08:10;;;;;;;7.18;4.03;;;;;;;-148.88;40.67;73766.84;4999094;28;20033;-80
2022/06/18 10:10:39;;;;;;;7.18;4.40;;;;;;;-148.88;40.91;73738.41;4997541;28;20026;-80
2022/06/18 10:13:12;;;;;;;11.23;4.40;;;;;;;-148.88;40.07;73762.78;4998206;28;20026;-80
2022/06/18 10:15:38;;;;;;;8.38;4.13;;;;;;;-148.88;39.86;73758.72;4997850;28;20480;-80
2022/06/18 10:18:26;;;;;;;7.40;3.97;;;;;;;-148.88;40.68;73734.34;4998850;28;20030;-81
2022/06/18 10:21:11;;;;;;;12.25;4.80;;;;;;;-148.88;39.93;73738.41;4999010;28;20049;-81
2022/06/18 10:23:51;;;;;;;12.65;4.40;;;;;;;-148.88;40.15;73748.56;4998234;28;20113;-80
2022/06/18 10:26:31;;;;;;;8.93;4.55;;;;;;;-148.88;39.38;73732.31;4998200;28;20488;-80
2022/06/18 10:29:35;;;;;;;8.15;4.03;;;;;;;-148.88;40.00;73722.16;4998730;28;20031;-80
2022/06/18 10:32:25;;;;;;;9.43;4.25;;;;;;;-148.88;39.22;73705.94;4998738;28;20033;-81
2022/06/18 10:35:10;;;;;;;10.35;4.43;;;;;;;-148.88;39.71;73712.00;4998606;28;20041;-81
2022/06/18 10:38:05;;;;;;;6.40;4.07;;;;;;;-148.88;40.12;73687.66;4999781;28;20049;-80
2022/06/18 10:40:55;;;;;;;7.80;4.55;;;;;;;-148.88;39.93;73661.25;4998005;28;20085;-81
2022/06/18 10:43:45;;;;;;;11.60;4.25;;;;;;;-148.88;39.66;73628.78;4997744;28;20030;-81
2022/06/18 10:46:14;;;;;;;10.85;4.22;;;;;;;-148.88;38.55;73663.28;4997438;28;20026;-80
2022/06/18 10:48:47;;;;;;;8.50;4.50;;;;;;;-148.88;39.45;73669.38;4996899;28;20019;-80
2022/06/18 10:51:21;;;;;;;7.50;4.18;;;;;;;-148.88;38.31;73620.66;4998257;28;20033;-80
2022/06/18 10:53:52;;;;;;;6.28;3.97;;;;;;;-148.88;38.48;73584.13;4997329;28;20080;-82
2022/06/18 10:56:21;;;;;;;6.22;3.60;;;;;;;-148.88;38.73;73600.34;4998198;28;20038;-81
2022/06/18 10:58:54;;;;;;;7.28;3.75;;;;;;;-148.88;38.47;73576.00;4997008;28;20053;-85
2022/06/18 11:01:31;;;;;;;8.85;3.78;;;;;;;-148.88;38.10;73594.28;5032307;23;20065;-85
2022/06/18 11:04:03;;;;;;;9.27;4.05;;;;;;;-148.88;38.09;73610.50;4998283;28;20036;-87
2022/06/18 11:06:30;;;;;;;9.95;4.00;;;;;;;-148.88;38.21;73592.25;4999069;28;20029;-87
2022/06/18 11:08:59;;;;;;;8.30;4.20;;;;;;;-148.88;37.65;73602.38;4997679;28;20029;-86
2022/06/18 11:11:29;;;;;;;9.32;4.40;;;;;;;-148.88;38.42;73580.06;4998089;28;20476;-85
2022/06/18 11:13:54;;;;;;;10.27;3.90;;;;;;;-148.88;38.15;73559.75;5015689;28;20190;-86
2022/06/18 11:16:26;;;;;;;7.63;3.90;;;;;;;-148.88;39.06;73545.53;4998817;28;20476;-86
2022/06/18 11:19:11;;;;;;;9.18;3.80;;;;;;;-148.88;37.75;73563.81;5014231;28;20029;-86
2022/06/18 11:21:39;;;;;;;9.07;3.63;;;;;;;-148.88;38.86;73543.50;5000698;28;20475;-87
2022/06/18 11:24:10;;;;;;;8.35;3.83;;;;;;;-148.88;37.07;73543.50;5013866;28;20499;-87
2022/06/18 11:26:40;;;;;;;8.30;3.72;;;;;;;-148.88;37.02;73515.09;4997599;28;20026;-86
2022/06/18 11:29:13;;;;;;;7.78;3.80;;;;;;;-148.88;36.46;73539.47;4997594;28;20026;-86
2022/06/18 11:31:43;;;;;;;;;;;;;;;-148.88;36.23;73513.06;5014967;28;20432;-86
2022/06/18 11:34:25;;;;;;;10.27;4.30;;;;;;;-148.88;36.12;73519.16;4998584;28;19916;-87
2022/06/18 11:36:54;;;;;;;7.80;3.67;;;;;;;-148.88;36.62;73506.97;4997198;28;20435;-87
2022/06/18 11:39:35;;;;;;;8.00;4.05;;;;;;;-148.88;36.98;73482.63;4997912;28;20092;-87
2022/06/18 11:42:16;;;;;;;12.63;4.03;;;;;;;-148.88;35.12;73498.84;4999088;28;20026;-85
2022/06/18 11:45:01;;;;;;;8.35;3.67;;;;;;;-148.88;35.22;73433.91;4997950;28;20120;-84